sensor_id;sensor_type;location;lat;lon;timestamp;pressure;altitude;pressure_sealevel;temperature;humidity
42727;BME280;28372;56.832;60.658;2023-05-25T00:01:50;98707.75;;;20.18;38.83
42727;BME280;28372;56.832;60.658;2023-05-25T00:04:21;98703.38;;;20.21;38.21
42727;BME280;28372;56.832;60.658;2023-05-25T00:06:53;98704.94;;;20.22;38.48
42727;BME280;28372;56.832;60.658;2023-05-25T00:09:23;98706.50;;;20.23;38.34
42727;BME280;28372;56.832;60.658;2023-05-25T00:11:51;98705.78;;;20.19;38.14
42727;BME280;28372;56.832;60.658;2023-05-25T00:14:19;98706.56;;;20.19;38.36
42727;BME280;28372;56.832;60.658;2023-05-25T00:16:47;98706.56;;;20.19;38.10
42727;BME280;28372;56.832;60.658;2023-05-25T00:19:15;98703.06;;;20.15;37.86
42727;BME280;28372;56.832;60.658;2023-05-25T00:21:44;98714.78;;;20.19;37.87
42727;BME280;28372;56.832;60.658;2023-05-25T00:24:15;98716.00;;;20.18;38.21
42727;BME280;28372;56.832;60.658;2023-05-25T00:26:42;98716.78;;;20.19;37.95
42727;BME280;28372;56.832;60.658;2023-05-25T00:29:10;98720.28;;;20.19;37.90
42727;BME280;28372;56.832;60.658;2023-05-25T00:31:39;98724.19;;;20.22;37.78
42727;BME280;28372;56.832;60.658;2023-05-25T00:34:07;98725.75;;;20.23;38.13
42727;BME280;28372;56.832;60.658;2023-05-25T00:36:35;98730.06;;;20.24;38.01
42727;BME280;28372;56.832;60.658;2023-05-25T00:39:02;98721.75;;;20.28;37.85
42727;BME280;28372;56.832;60.658;2023-05-25T00:41:31;98726.81;;;20.29;38.01
42727;BME280;28372;56.832;60.658;2023-05-25T00:43:59;98715.78;;;20.33;38.47
42727;BME280;28372;56.832;60.658;2023-05-25T00:46:28;98725.19;;;20.35;38.41
42727;BME280;28372;56.832;60.658;2023-05-25T00:48:56;98719.19;;;20.41;37.88
42727;BME280;28372;56.832;60.658;2023-05-25T00:51:25;98727.31;;;20.48;38.31
42727;BME280;28372;56.832;60.658;2023-05-25T00:53:55;98728.91;;;20.49;39.25
42727;BME280;28372;56.832;60.658;2023-05-25T00:56:25;98727.59;;;20.57;39.12
42727;BME280;28372;56.832;60.658;2023-05-25T00:58:56;98736.22;;;20.59;38.67
42727;BME280;28372;56.832;60.658;2023-05-25T01:01:27;98731.06;;;20.61;38.50
42727;BME280;28372;56.832;60.658;2023-05-25T01:04:00;98733.78;;;20.65;38.43
42727;BME280;28372;56.832;60.658;2023-05-25T01:06:31;98731.66;;;20.76;38.66
42727;BME280;28372;56.832;60.658;2023-05-25T01:09:02;98732.72;;;20.82;38.42
42727;BME280;28372;56.832;60.658;2023-05-25T01:11:32;98730.34;;;20.84;38.36
42727;BME280;28372;56.832;60.658;2023-05-25T01:14:02;98734.59;;;20.89;38.07
42727;BME280;28372;56.832;60.658;2023-05-25T01:16:30;98739.19;;;20.96;38.24
42727;BME280;28372;56.832;60.658;2023-05-25T01:19:00;98731.66;;;21.00;38.37
42727;BME280;28372;56.832;60.658;2023-05-25T01:21:39;98737.97;;;21.20;38.48
42727;BME280;28372;56.832;60.658;2023-05-25T01:24:43;98743.28;;;21.31;38.26
42727;BME280;28372;56.832;60.658;2023-05-25T01:27:19;98738.94;;;21.34;37.95
42727;BME280;28372;56.832;60.658;2023-05-25T01:29:49;98740.06;;;21.36;37.38
42727;BME280;28372;56.832;60.658;2023-05-25T01:32:17;98738.38;;;21.43;37.30
42727;BME280;28372;56.832;60.658;2023-05-25T01:34:47;98738.63;;;21.52;37.77
42727;BME280;28372;56.832;60.658;2023-05-25T01:37:17;98742.78;;;21.60;37.37
42727;BME280;28372;56.832;60.658;2023-05-25T01:39:45;98730.44;;;21.68;37.20
42727;BME280;28372;56.832;60.658;2023-05-25T01:42:13;98730.97;;;21.80;37.05
42727;BME280;28372;56.832;60.658;2023-05-25T01:44:41;98736.72;;;21.89;36.82
42727;BME280;28372;56.832;60.658;2023-05-25T01:47:23;98737.47;;;22.10;36.69
42727;BME280;28372;56.832;60.658;2023-05-25T01:50:05;98744.72;;;22.20;36.62
42727;BME280;28372;56.832;60.658;2023-05-25T01:52:37;98738.50;;;22.16;36.20
42727;BME280;28372;56.832;60.658;2023-05-25T01:55:26;98741.25;;;22.36;36.25
42727;BME280;28372;56.832;60.658;2023-05-25T01:57:55;98745.13;;;22.38;36.09
42727;BME280;28372;56.832;60.658;2023-05-25T02:00:26;98748.41;;;22.50;35.56
42727;BME280;28372;56.832;60.658;2023-05-25T02:02:58;98749.72;;;22.62;35.68
42727;BME280;28372;56.832;60.658;2023-05-25T02:05:28;98732.50;;;22.74;35.50
42727;BME280;28372;56.832;60.658;2023-05-25T02:07:55;98740.59;;;22.81;35.28
42727;BME280;28372;56.832;60.658;2023-05-25T02:10:23;98734.47;;;22.90;34.98
42727;BME280;28372;56.832;60.658;2023-05-25T02:12:51;98740.84;;;23.03;35.06
42727;BME280;28372;56.832;60.658;2023-05-25T02:15:20;98748.00;;;23.17;34.42
42727;BME280;28372;56.832;60.658;2023-05-25T02:17:48;98739.13;;;23.26;34.34
42727;BME280;28372;56.832;60.658;2023-05-25T02:20:38;98737.84;;;23.43;34.53
42727;BME280;28372;56.832;60.658;2023-05-25T02:23:06;98737.03;;;23.59;33.59
42727;BME280;28372;56.832;60.658;2023-05-25T02:25:33;98733.97;;;23.70;33.26
42727;BME280;28372;56.832;60.658;2023-05-25T02:28:01;98728.47;;;23.83;33.10
42727;BME280;28372;56.832;60.658;2023-05-25T02:30:29;98736.84;;;23.96;32.99
42727;BME280;28372;56.832;60.658;2023-05-25T02:32:57;98734.84;;;24.09;32.53
42727;BME280;28372;56.832;60.658;2023-05-25T02:35:25;98738.72;;;24.25;32.35
42727;BME280;28372;56.832;60.658;2023-05-25T02:37:53;98730.34;;;24.41;32.21
42727;BME280;28372;56.832;60.658;2023-05-25T02:40:21;98736.97;;;24.57;31.85
42727;BME280;28372;56.832;60.658;2023-05-25T02:42:49;98733.75;;;24.71;31.39
42727;BME280;28372;56.832;60.658;2023-05-25T02:45:16;98739.72;;;24.83;31.87
42727;BME280;28372;56.832;60.658;2023-05-25T02:47:44;98737.25;;;24.97;31.42
42727;BME280;28372;56.832;60.658;2023-05-25T02:50:12;98726.94;;;25.11;31.09
42727;BME280;28372;56.832;60.658;2023-05-25T02:52:49;98737.81;;;25.27;31.00
42727;BME280;28372;56.832;60.658;2023-05-25T02:55:17;98733.81;;;25.41;30.73
42727;BME280;28372;56.832;60.658;2023-05-25T02:57:46;98738.09;;;25.55;30.67
42727;BME280;28372;56.832;60.658;2023-05-25T03:00:28;98739.63;;;25.78;30.50
42727;BME280;28372;56.832;60.658;2023-05-25T03:02:56;98739.28;;;26.21;29.85
42727;BME280;28372;56.832;60.658;2023-05-25T03:05:24;98744.03;;;27.11;28.67
42727;BME280;28372;56.832;60.658;2023-05-25T03:07:52;98742.63;;;27.99;27.50
42727;BME280;28372;56.832;60.658;2023-05-25T03:10:20;98745.19;;;28.88;26.58
42727;BME280;28372;56.832;60.658;2023-05-25T03:12:48;98732.16;;;29.58;25.17
42727;BME280;28372;56.832;60.658;2023-05-25T03:15:16;98741.28;;;30.33;24.75
42727;BME280;28372;56.832;60.658;2023-05-25T03:17:44;98734.06;;;30.97;23.85
42727;BME280;28372;56.832;60.658;2023-05-25T03:20:12;98742.41;;;31.59;23.25
42727;BME280;28372;56.832;60.658;2023-05-25T03:22:45;98739.47;;;32.21;22.48
42727;BME280;28372;56.832;60.658;2023-05-25T03:25:13;98740.06;;;32.79;21.58
42727;BME280;28372;56.832;60.658;2023-05-25T03:27:41;98748.75;;;33.36;20.59
42727;BME280;28372;56.832;60.658;2023-05-25T03:30:09;98743.50;;;33.84;20.39
42727;BME280;28372;56.832;60.658;2023-05-25T03:32:37;98727.19;;;34.33;19.68
42727;BME280;28372;56.832;60.658;2023-05-25T03:35:05;98742.91;;;34.81;18.67
42727;BME280;28372;56.832;60.658;2023-05-25T03:37:34;98739.44;;;35.23;18.48
42727;BME280;28372;56.832;60.658;2023-05-25T03:40:02;98743.78;;;35.65;17.80
42727;BME280;28372;56.832;60.658;2023-05-25T03:42:32;98743.47;;;36.11;17.63
42727;BME280;28372;56.832;60.658;2023-05-25T03:45:00;98745.16;;;36.50;17.53
42727;BME280;28372;56.832;60.658;2023-05-25T03:47:31;98736.06;;;36.88;16.98
42727;BME280;28372;56.832;60.658;2023-05-25T03:49:59;98738.66;;;37.29;17.11
42727;BME280;28372;56.832;60.658;2023-05-25T03:52:27;98744.56;;;37.64;16.29
42727;BME280;28372;56.832;60.658;2023-05-25T03:54:55;98746.00;;;38.03;16.34
42727;BME280;28372;56.832;60.658;2023-05-25T03:57:23;98734.81;;;38.30;15.73
42727;BME280;28372;56.832;60.658;2023-05-25T03:59:51;98736.78;;;38.62;15.18
42727;BME280;28372;56.832;60.658;2023-05-25T04:02:18;98742.53;;;38.96;15.25
42727;BME280;28372;56.832;60.658;2023-05-25T04:04:46;98735.56;;;39.24;15.61
42727;BME280;28372;56.832;60.658;2023-05-25T04:07:18;98737.53;;;39.50;15.21
42727;BME280;28372;56.832;60.658;2023-05-25T04:09:46;98732.53;;;39.78;15.05
42727;BME280;28372;56.832;60.658;2023-05-25T04:12:15;98734.13;;;40.07;14.73
42727;BME280;28372;56.832;60.658;2023-05-25T04:14:43;98736.78;;;40.34;14.30
42727;BME280;28372;56.832;60.658;2023-05-25T04:17:12;98734.75;;;40.64;14.72
42727;BME280;28372;56.832;60.658;2023-05-25T04:19:40;98734.09;;;40.86;13.97
42727;BME280;28372;56.832;60.658;2023-05-25T04:22:09;98737.22;;;41.04;13.57
42727;BME280;28372;56.832;60.658;2023-05-25T04:24:37;98739.09;;;41.46;13.94
42727;BME280;28372;56.832;60.658;2023-05-25T04:27:05;98731.78;;;41.81;13.06
42727;BME280;28372;56.832;60.658;2023-05-25T04:29:33;98725.34;;;42.11;13.22
42727;BME280;28372;56.832;60.658;2023-05-25T04:32:09;98728.75;;;42.41;12.74
42727;BME280;28372;56.832;60.658;2023-05-25T04:34:45;98730.78;;;42.71;12.56
42727;BME280;28372;56.832;60.658;2023-05-25T04:37:24;98730.41;;;42.75;12.44
42727;BME280;28372;56.832;60.658;2023-05-25T04:39:58;98713.53;;;43.18;12.02
42727;BME280;28372;56.832;60.658;2023-05-25T04:42:30;98714.59;;;43.30;11.85
42727;BME280;28372;56.832;60.658;2023-05-25T04:44:58;98714.16;;;43.49;11.78
42727;BME280;28372;56.832;60.658;2023-05-25T04:47:29;98722.13;;;43.76;11.50
42727;BME280;28372;56.832;60.658;2023-05-25T04:49:57;98714.50;;;44.04;11.38
42727;BME280;28372;56.832;60.658;2023-05-25T04:52:25;98719.94;;;44.35;11.52
42727;BME280;28372;56.832;60.658;2023-05-25T04:54:53;98714.22;;;44.52;11.50
42727;BME280;28372;56.832;60.658;2023-05-25T04:57:20;98714.47;;;44.81;11.16
42727;BME280;28372;56.832;60.658;2023-05-25T04:59:48;98713.53;;;45.14;10.44
42727;BME280;28372;56.832;60.658;2023-05-25T05:02:17;98710.94;;;45.36;10.70
42727;BME280;28372;56.832;60.658;2023-05-25T05:04:45;98715.28;;;45.64;10.44
42727;BME280;28372;56.832;60.658;2023-05-25T05:07:12;98709.16;;;45.77;10.12
42727;BME280;28372;56.832;60.658;2023-05-25T05:09:40;98714.94;;;45.87;9.82
42727;BME280;28372;56.832;60.658;2023-05-25T05:12:08;98707.00;;;45.95;9.92
42727;BME280;28372;56.832;60.658;2023-05-25T05:14:44;98710.78;;;46.08;10.54
42727;BME280;28372;56.832;60.658;2023-05-25T05:17:12;98709.75;;;46.13;9.55
42727;BME280;28372;56.832;60.658;2023-05-25T05:19:39;98697.44;;;46.30;9.13
42727;BME280;28372;56.832;60.658;2023-05-25T05:22:08;98693.53;;;46.45;9.53
42727;BME280;28372;56.832;60.658;2023-05-25T05:24:37;98693.97;;;46.61;9.78
42727;BME280;28372;56.832;60.658;2023-05-25T05:27:05;98696.41;;;46.74;9.20
42727;BME280;28372;56.832;60.658;2023-05-25T05:29:41;98695.16;;;46.97;9.05
42727;BME280;28372;56.832;60.658;2023-05-25T05:32:08;98693.63;;;47.15;9.26
42727;BME280;28372;56.832;60.658;2023-05-25T05:34:36;98690.25;;;47.39;8.90
42727;BME280;28372;56.832;60.658;2023-05-25T05:37:09;98684.16;;;47.54;7.87
42727;BME280;28372;56.832;60.658;2023-05-25T05:39:37;98687.13;;;47.66;7.61
42727;BME280;28372;56.832;60.658;2023-05-25T05:42:05;98674.25;;;47.77;7.79
42727;BME280;28372;56.832;60.658;2023-05-25T05:44:34;98681.25;;;47.95;7.78
42727;BME280;28372;56.832;60.658;2023-05-25T05:47:02;98678.44;;;48.07;8.25
42727;BME280;28372;56.832;60.658;2023-05-25T05:49:30;98675.72;;;48.31;8.31
42727;BME280;28372;56.832;60.658;2023-05-25T05:52:00;98668.03;;;48.45;7.06
42727;BME280;28372;56.832;60.658;2023-05-25T05:54:27;98671.63;;;48.56;6.59
42727;BME280;28372;56.832;60.658;2023-05-25T05:56:59;98671.38;;;48.63;6.77
42727;BME280;28372;56.832;60.658;2023-05-25T05:59:27;98669.41;;;48.78;6.90
42727;BME280;28372;56.832;60.658;2023-05-25T06:01:55;98654.03;;;48.95;6.69
42727;BME280;28372;56.832;60.658;2023-05-25T06:04:23;98661.41;;;49.10;6.63
42727;BME280;28372;56.832;60.658;2023-05-25T06:06:56;98657.06;;;49.32;6.39
42727;BME280;28372;56.832;60.658;2023-05-25T06:09:25;98655.22;;;49.37;5.97
42727;BME280;28372;56.832;60.658;2023-05-25T06:11:55;98649.31;;;49.35;6.05
42727;BME280;28372;56.832;60.658;2023-05-25T06:14:23;98649.03;;;49.07;5.89
42727;BME280;28372;56.832;60.658;2023-05-25T06:16:57;98648.03;;;48.91;6.09
42727;BME280;28372;56.832;60.658;2023-05-25T06:19:25;98647.91;;;49.12;6.61
42727;BME280;28372;56.832;60.658;2023-05-25T06:21:52;98642.22;;;49.36;6.02
42727;BME280;28372;56.832;60.658;2023-05-25T06:24:20;98641.19;;;49.55;5.95
42727;BME280;28372;56.832;60.658;2023-05-25T06:26:48;98641.84;;;49.65;5.88
42727;BME280;28372;56.832;60.658;2023-05-25T06:29:18;98644.44;;;49.73;5.55
42727;BME280;28372;56.832;60.658;2023-05-25T06:31:46;98638.06;;;49.75;5.81
42727;BME280;28372;56.832;60.658;2023-05-25T06:34:13;98631.03;;;49.89;5.83
42727;BME280;28372;56.832;60.658;2023-05-25T06:36:41;98625.16;;;49.99;5.67
42727;BME280;28372;56.832;60.658;2023-05-25T06:39:09;98622.25;;;50.11;6.11
42727;BME280;28372;56.832;60.658;2023-05-25T06:41:37;98635.69;;;49.95;5.94
42727;BME280;28372;56.832;60.658;2023-05-25T06:44:06;98617.09;;;49.48;5.86
42727;BME280;28372;56.832;60.658;2023-05-25T06:46:45;98627.06;;;49.00;5.89
42727;BME280;28372;56.832;60.658;2023-05-25T06:49:14;98616.28;;;48.77;6.17
42727;BME280;28372;56.832;60.658;2023-05-25T06:51:42;98618.28;;;48.86;6.27
42727;BME280;28372;56.832;60.658;2023-05-25T06:54:10;98612.63;;;48.09;6.51
42727;BME280;28372;56.832;60.658;2023-05-25T06:56:40;98621.13;;;47.85;6.68
42727;BME280;28372;56.832;60.658;2023-05-25T06:59:08;98621.13;;;47.85;6.39
42727;BME280;28372;56.832;60.658;2023-05-25T07:01:35;98618.66;;;48.13;6.60
42727;BME280;28372;56.832;60.658;2023-05-25T07:04:03;98609.31;;;48.46;6.49
42727;BME280;28372;56.832;60.658;2023-05-25T07:06:31;98612.34;;;48.60;6.12
42727;BME280;28372;56.832;60.658;2023-05-25T07:08:59;98616.44;;;48.02;6.51
42727;BME280;28372;56.832;60.658;2023-05-25T07:11:27;98615.78;;;47.29;6.50
42727;BME280;28372;56.832;60.658;2023-05-25T07:13:55;98611.47;;;46.47;6.64
42727;BME280;28372;56.832;60.658;2023-05-25T07:16:22;98615.78;;;45.80;6.62
42727;BME280;28372;56.832;60.658;2023-05-25T07:18:51;98619.47;;;45.16;7.33
42727;BME280;28372;56.832;60.658;2023-05-25T07:21:19;98617.38;;;44.89;7.38
42727;BME280;28372;56.832;60.658;2023-05-25T07:23:47;98619.78;;;44.48;7.91
42727;BME280;28372;56.832;60.658;2023-05-25T07:26:15;98615.59;;;44.49;7.93
42727;BME280;28372;56.832;60.658;2023-05-25T07:28:42;98611.09;;;44.73;7.80
42727;BME280;28372;56.832;60.658;2023-05-25T07:31:10;98601.03;;;44.72;6.80
42727;BME280;28372;56.832;60.658;2023-05-25T07:33:38;98603.72;;;44.70;7.74
42727;BME280;28372;56.832;60.658;2023-05-25T07:36:06;98605.06;;;44.69;7.31
42727;BME280;28372;56.832;60.658;2023-05-25T07:38:33;98597.72;;;44.48;7.24
42727;BME280;28372;56.832;60.658;2023-05-25T07:41:01;98593.53;;;44.32;7.77
42727;BME280;28372;56.832;60.658;2023-05-25T07:43:30;98595.69;;;44.24;7.75
42727;BME280;28372;56.832;60.658;2023-05-25T07:45:59;98617.00;;;44.05;7.46
42727;BME280;28372;56.832;60.658;2023-05-25T07:48:28;98592.47;;;43.67;7.62
42727;BME280;28372;56.832;60.658;2023-05-25T07:50:56;98598.06;;;43.32;7.25
42727;BME280;28372;56.832;60.658;2023-05-25T07:53:24;98594.28;;;42.96;7.67
42727;BME280;28372;56.832;60.658;2023-05-25T07:55:51;98591.00;;;42.75;7.66
42727;BME280;28372;56.832;60.658;2023-05-25T07:58:19;98591.81;;;42.68;7.98
42727;BME280;28372;56.832;60.658;2023-05-25T08:00:47;98590.69;;;42.63;7.95
42727;BME280;28372;56.832;60.658;2023-05-25T08:03:16;98589.22;;;42.47;8.19
42727;BME280;28372;56.832;60.658;2023-05-25T08:05:44;98591.19;;;42.28;7.90
42727;BME280;28372;56.832;60.658;2023-05-25T08:08:12;98590.41;;;42.28;8.01
42727;BME280;28372;56.832;60.658;2023-05-25T08:10:40;98592.72;;;42.22;7.88
42727;BME280;28372;56.832;60.658;2023-05-25T08:13:08;98581.72;;;42.18;8.30
42727;BME280;28372;56.832;60.658;2023-05-25T08:15:35;98582.91;;;42.07;8.24
42727;BME280;28372;56.832;60.658;2023-05-25T08:18:03;98582.69;;;42.13;8.06
42727;BME280;28372;56.832;60.658;2023-05-25T08:20:31;98576.66;;;42.01;8.28
42727;BME280;28372;56.832;60.658;2023-05-25T08:22:59;98591.28;;;41.82;8.42
42727;BME280;28372;56.832;60.658;2023-05-25T08:25:28;98588.25;;;41.72;8.63
42727;BME280;28372;56.832;60.658;2023-05-25T08:27:55;98587.66;;;41.51;8.42
42727;BME280;28372;56.832;60.658;2023-05-25T08:30:23;98585.75;;;41.22;8.65
42727;BME280;28372;56.832;60.658;2023-05-25T08:32:50;98578.56;;;41.14;8.92
42727;BME280;28372;56.832;60.658;2023-05-25T08:35:18;98585.53;;;40.97;8.51
42727;BME280;28372;56.832;60.658;2023-05-25T08:37:46;98577.41;;;40.93;8.69
42727;BME280;28372;56.832;60.658;2023-05-25T08:40:15;98585.69;;;40.84;9.05
42727;BME280;28372;56.832;60.658;2023-05-25T08:42:46;98584.13;;;40.75;8.54
42727;BME280;28372;56.832;60.658;2023-05-25T08:45:14;98574.28;;;40.68;8.72
42727;BME280;28372;56.832;60.658;2023-05-25T08:48:00;98577.25;;;40.55;8.58
42727;BME280;28372;56.832;60.658;2023-05-25T08:50:31;98575.09;;;40.40;8.98
42727;BME280;28372;56.832;60.658;2023-05-25T08:53:02;98575.66;;;40.38;8.87
42727;BME280;28372;56.832;60.658;2023-05-25T08:55:32;98574.22;;;40.16;8.88
42727;BME280;28372;56.832;60.658;2023-05-25T08:58:25;98572.91;;;40.54;8.58
42727;BME280;28372;56.832;60.658;2023-05-25T09:01:01;98564.63;;;39.90;9.36
42727;BME280;28372;56.832;60.658;2023-05-25T09:03:30;98558.84;;;39.75;9.20
42727;BME280;28372;56.832;60.658;2023-05-25T09:06:00;98561.03;;;39.61;9.49
42727;BME280;28372;56.832;60.658;2023-05-25T09:08:28;98550.94;;;39.52;9.42
42727;BME280;28372;56.832;60.658;2023-05-25T09:10:57;98562.97;;;39.45;9.38
42727;BME280;28372;56.832;60.658;2023-05-25T09:13:25;98562.75;;;39.43;9.91
42727;BME280;28372;56.832;60.658;2023-05-25T09:15:53;98563.28;;;39.41;9.63
42727;BME280;28372;56.832;60.658;2023-05-25T09:18:21;98555.16;;;39.38;9.50
42727;BME280;28372;56.832;60.658;2023-05-25T09:20:49;98556.41;;;39.29;9.97
42727;BME280;28372;56.832;60.658;2023-05-25T09:23:18;98555.38;;;39.19;9.57
42727;BME280;28372;56.832;60.658;2023-05-25T09:25:47;98556.03;;;39.12;9.66
42727;BME280;28372;56.832;60.658;2023-05-25T09:28:20;98562.25;;;39.10;9.82
42727;BME280;28372;56.832;60.658;2023-05-25T09:30:54;98555.59;;;38.86;9.44
42727;BME280;28372;56.832;60.658;2023-05-25T09:33:22;98547.50;;;38.69;9.65
42727;BME280;28372;56.832;60.658;2023-05-25T09:35:50;98549.47;;;38.61;9.92
42727;BME280;28372;56.832;60.658;2023-05-25T09:38:18;98533.44;;;38.43;9.94
42727;BME280;28372;56.832;60.658;2023-05-25T09:40:47;98533.81;;;38.26;10.08
42727;BME280;28372;56.832;60.658;2023-05-25T09:43:15;98536.16;;;38.08;10.51
42727;BME280;28372;56.832;60.658;2023-05-25T09:45:58;98539.97;;;37.97;10.22
42727;BME280;28372;56.832;60.658;2023-05-25T09:48:26;98536.81;;;37.87;10.48
42727;BME280;28372;56.832;60.658;2023-05-25T09:50:55;98534.53;;;37.72;10.51
42727;BME280;28372;56.832;60.658;2023-05-25T09:53:25;98548.41;;;37.70;10.84
42727;BME280;28372;56.832;60.658;2023-05-25T09:55:52;98522.97;;;37.44;10.76
42727;BME280;28372;56.832;60.658;2023-05-25T09:58:22;98540.66;;;37.31;10.83
42727;BME280;28372;56.832;60.658;2023-05-25T10:00:53;98542.25;;;37.26;10.91
42727;BME280;28372;56.832;60.658;2023-05-25T10:03:23;98532.44;;;37.14;11.14
42727;BME280;28372;56.832;60.658;2023-05-25T10:05:53;98526.44;;;37.04;11.10
42727;BME280;28372;56.832;60.658;2023-05-25T10:08:21;98528.38;;;36.96;11.02
42727;BME280;28372;56.832;60.658;2023-05-25T10:10:55;98520.19;;;36.79;10.92
42727;BME280;28372;56.832;60.658;2023-05-25T10:13:24;98523.50;;;36.77;11.28
42727;BME280;28372;56.832;60.658;2023-05-25T10:15:53;98522.91;;;36.65;11.38
42727;BME280;28372;56.832;60.658;2023-05-25T10:18:25;98524.66;;;36.68;11.26
42727;BME280;28372;56.832;60.658;2023-05-25T10:21:02;98528.34;;;36.77;11.21
42727;BME280;28372;56.832;60.658;2023-05-25T10:23:38;98518.66;;;36.59;11.45
42727;BME280;28372;56.832;60.658;2023-05-25T10:26:13;98522.47;;;36.42;12.05
42727;BME280;28372;56.832;60.658;2023-05-25T10:28:49;98524.94;;;36.27;11.79
42727;BME280;28372;56.832;60.658;2023-05-25T10:31:16;98529.69;;;36.76;11.46
42727;BME280;28372;56.832;60.658;2023-05-25T10:33:45;98522.16;;;36.02;11.94
42727;BME280;28372;56.832;60.658;2023-05-25T10:36:19;98531.81;;;35.88;12.24
42727;BME280;28372;56.832;60.658;2023-05-25T10:38:50;98525.22;;;35.79;12.24
42727;BME280;28372;56.832;60.658;2023-05-25T10:41:19;98529.78;;;35.58;12.21
42727;BME280;28372;56.832;60.658;2023-05-25T10:43:47;98527.63;;;35.39;12.35
42727;BME280;28372;56.832;60.658;2023-05-25T10:46:15;98521.56;;;35.29;11.97
42727;BME280;28372;56.832;60.658;2023-05-25T10:48:48;98527.41;;;35.37;12.54
42727;BME280;28372;56.832;60.658;2023-05-25T10:51:19;98532.59;;;35.27;12.48
42727;BME280;28372;56.832;60.658;2023-05-25T10:53:58;98523.84;;;35.37;12.38
42727;BME280;28372;56.832;60.658;2023-05-25T10:56:27;98502.69;;;34.94;12.10
42727;BME280;28372;56.832;60.658;2023-05-25T10:58:55;98509.09;;;34.89;12.75
42727;BME280;28372;56.832;60.658;2023-05-25T11:01:23;98517.03;;;34.90;12.10
42727;BME280;28372;56.832;60.658;2023-05-25T11:09:25;98494.94;;;35.36;12.13
42727;BME280;28372;56.832;60.658;2023-05-25T11:14:29;98496.28;;;34.57;12.69
42727;BME280;28372;56.832;60.658;2023-05-25T11:17:13;98497.28;;;34.60;12.91
42727;BME280;28372;56.832;60.658;2023-05-25T11:19:44;98503.06;;;34.26;13.05
42727;BME280;28372;56.832;60.658;2023-05-25T11:24:52;98495.03;;;33.94;13.47
42727;BME280;28372;56.832;60.658;2023-05-25T11:27:24;98497.56;;;33.97;13.28
42727;BME280;28372;56.832;60.658;2023-05-25T11:29:54;98498.91;;;33.74;13.60
42727;BME280;28372;56.832;60.658;2023-05-25T11:32:25;98484.41;;;33.53;13.84
42727;BME280;28372;56.832;60.658;2023-05-25T11:34:55;98498.16;;;33.51;13.93
42727;BME280;28372;56.832;60.658;2023-05-25T11:37:25;98496.41;;;33.47;13.91
42727;BME280;28372;56.832;60.658;2023-05-25T11:39:58;98482.91;;;33.35;13.88
42727;BME280;28372;56.832;60.658;2023-05-25T11:42:25;98483.91;;;33.32;13.81
42727;BME280;28372;56.832;60.658;2023-05-25T11:44:54;98478.06;;;33.29;14.02
42727;BME280;28372;56.832;60.658;2023-05-25T11:47:22;98468.91;;;33.29;13.96
42727;BME280;28372;56.832;60.658;2023-05-25T11:49:54;98480.63;;;33.39;13.91
42727;BME280;28372;56.832;60.658;2023-05-25T11:52:22;98471.94;;;33.25;13.83
42727;BME280;28372;56.832;60.658;2023-05-25T11:54:50;98465.81;;;33.21;14.09
42727;BME280;28372;56.832;60.658;2023-05-25T11:57:21;98467.59;;;33.19;13.95
42727;BME280;28372;56.832;60.658;2023-05-25T11:59:55;98469.13;;;33.14;14.14
42727;BME280;28372;56.832;60.658;2023-05-25T12:02:23;98462.00;;;32.96;14.15
42727;BME280;28372;56.832;60.658;2023-05-25T12:07:21;98460.72;;;32.80;14.33
42727;BME280;28372;56.832;60.658;2023-05-25T12:09:49;98455.66;;;32.73;13.86
42727;BME280;28372;56.832;60.658;2023-05-25T12:12:18;98460.97;;;32.71;14.63
42727;BME280;28372;56.832;60.658;2023-05-25T12:14:47;98450.00;;;32.61;14.66
42727;BME280;28372;56.832;60.658;2023-05-25T12:17:16;98455.56;;;32.56;14.52
42727;BME280;28372;56.832;60.658;2023-05-25T12:19:45;98449.97;;;32.50;14.58
42727;BME280;28372;56.832;60.658;2023-05-25T12:22:13;98448.69;;;32.51;14.66
42727;BME280;28372;56.832;60.658;2023-05-25T12:24:41;98439.03;;;32.47;14.78
42727;BME280;28372;56.832;60.658;2023-05-25T12:27:19;98452.84;;;32.73;14.50
42727;BME280;28372;56.832;60.658;2023-05-25T12:29:49;98443.34;;;32.42;14.81
42727;BME280;28372;56.832;60.658;2023-05-25T12:32:19;98447.41;;;32.41;14.35
42727;BME280;28372;56.832;60.658;2023-05-25T12:34:46;98439.75;;;32.36;14.60
42727;BME280;28372;56.832;60.658;2023-05-25T12:37:19;98448.69;;;32.45;14.50
42727;BME280;28372;56.832;60.658;2023-05-25T12:39:47;98440.78;;;32.33;14.58
42727;BME280;28372;56.832;60.658;2023-05-25T12:42:16;98436.69;;;32.22;14.73
42727;BME280;28372;56.832;60.658;2023-05-25T12:44:44;98437.97;;;32.21;14.29
42727;BME280;28372;56.832;60.658;2023-05-25T12:47:21;98444.84;;;32.37;14.68
42727;BME280;28372;56.832;60.658;2023-05-25T12:50:13;98444.88;;;32.49;14.50
42727;BME280;28372;56.832;60.658;2023-05-25T12:52:43;98440.97;;;32.18;14.80
42727;BME280;28372;56.832;60.658;2023-05-25T12:55:31;98436.22;;;32.41;14.47
42727;BME280;28372;56.832;60.658;2023-05-25T12:58:03;98429.75;;;32.12;14.59
42727;BME280;28372;56.832;60.658;2023-05-25T13:00:37;98434.13;;;32.19;14.63
42727;BME280;28372;56.832;60.658;2023-05-25T13:03:06;98427.69;;;31.96;14.59
42727;BME280;28372;56.832;60.658;2023-05-25T13:05:36;98433.00;;;31.93;14.59
42727;BME280;28372;56.832;60.658;2023-05-25T13:08:05;98418.75;;;31.86;14.54
42727;BME280;28372;56.832;60.658;2023-05-25T13:10:36;98429.16;;;31.91;14.61
42727;BME280;28372;56.832;60.658;2023-05-25T13:13:03;98422.47;;;31.71;14.54
42727;BME280;28372;56.832;60.658;2023-05-25T13:15:31;98417.38;;;31.64;14.82
42727;BME280;28372;56.832;60.658;2023-05-25T13:17:59;98416.34;;;31.62;14.75
42727;BME280;28372;56.832;60.658;2023-05-25T13:20:27;98418.88;;;31.59;15.22